^^
Station Historical Data
Daily Summary for January 4, 2017 Units:  Both    English   Metric
« Previous Day
Next Day »
Daily Weekly Monthly Yearly Custom
  High: Low: Average:
Temperature: TemperatureF °F /  -17.8 °C 65.1 °F /  18.4 °C 74.4 °F /  23.6 °C
Dew Point: DewpointF °F /  -17.8 °C 50.0 °F /  10 °C 55.1 °F /  12.8 °C
Humidity: Humidity% 31% 53%
Wind Speed: WindSpeedMPHmph /  0km/h - 2.2mph /  3.5km/h
Wind Gust: WindSpeedGustMPHmph /  0km/h - -
Wind- - South
Pressure: PressureIn in /  0 hPa 29.51 in /  999.2 hPa -
Precipitation: 0.00 in /  0 mm    
Historical Graphs
 
 
Tabular Data for January 4, 2017
Time Temperature Dew Point Pressure Wind Wind Speed Wind Gust Humidity Rainfall Rate (Hourly) solar Conditions
TemperatureF °F /  -17.8 °C DewpointF °F /  -17.8 °C PressureInin /  0hPa Calm     Humidity% HourlyPrecipInin /  0mm SolarRadiationWatts/m^2 W/m2 Conditions
00:00 66.7 °F /  19.3 °C 57.7 °F /  14.3 °C 29.67in /  1004.6hPa SE 2.9mph /  4.7km/h 4.0mph /  6.4km/h 73% 0.00in /  0mm 47.0 W/m2
00:07 66.7 °F /  19.3 °C 57.7 °F /  14.3 °C 29.67in /  1004.6hPa ESE 4.0mph /  6.4km/h 6.0mph /  9.7km/h 73% 0.00in /  0mm 58.0 W/m2
00:13 66.7 °F /  19.3 °C 57.7 °F /  14.3 °C 29.68in /  1005hPa SE 0.9mph /  1.4km/h 2.0mph /  3.2km/h 73% 0.00in /  0mm 67.0 W/m2
00:19 66.9 °F /  19.4 °C 58.3 °F /  14.6 °C 29.68in /  1005hPa SSE 2.0mph /  3.2km/h 4.0mph /  6.4km/h 74% 0.00in /  0mm 74.0 W/m2
00:25 66.9 °F /  19.4 °C 58.3 °F /  14.6 °C 29.67in /  1004.6hPa South 2.9mph /  4.7km/h 5.0mph /  8km/h 74% 0.00in /  0mm 91.0 W/m2
00:31 67.3 °F /  19.6 °C 58.3 °F /  14.6 °C 29.68in /  1005hPa Calm   6.0mph /  9.7km/h 73% 0.00in /  0mm 102.0 W/m2
00:37 67.3 °F /  19.6 °C 57.6 °F /  14.2 °C 29.68in /  1005hPa SSE 2.9mph /  4.7km/h 6.0mph /  9.7km/h 71% 0.00in /  0mm 105.0 W/m2
00:43 67.5 °F /  19.7 °C 57.7 °F /  14.3 °C 29.68in /  1005hPa SSW 2.0mph /  3.2km/h 7.0mph /  11.3km/h 71% 0.00in /  0mm 123.0 W/m2
00:49 67.6 °F /  19.8 °C 57.9 °F /  14.4 °C 29.67in /  1004.6hPa SSE 2.0mph /  3.2km/h 8.0mph /  12.9km/h 71% 0.00in /  0mm 195.0 W/m2
00:55 68.2 °F /  20.1 °C 58.1 °F /  14.5 °C 29.68in /  1005hPa SE 6.0mph /  9.7km/h 9.0mph /  14.5km/h 70% 0.00in /  0mm 225.0 W/m2
01:01 68.5 °F /  20.3 °C 58.3 °F /  14.6 °C 29.68in /  1005hPa SSW 2.9mph /  4.7km/h 8.0mph /  12.9km/h 70% 0.00in /  0mm 285.0 W/m2
01:07 68.9 °F /  20.5 °C 57.9 °F /  14.4 °C 29.68in /  1005hPa SSE 4.0mph /  6.4km/h 9.0mph /  14.5km/h 68% 0.00in /  0mm 302.0 W/m2
01:13 69.3 °F /  20.7 °C 57.9 °F /  14.4 °C 29.69in /  1005.3hPa South 6.0mph /  9.7km/h 8.0mph /  12.9km/h 67% 0.00in /  0mm 206.0 W/m2
01:19 69.4 °F /  20.8 °C 57.9 °F /  14.4 °C 29.69in /  1005.3hPa SE 2.0mph /  3.2km/h 8.0mph /  12.9km/h 67% 0.00in /  0mm 383.0 W/m2
01:25 70.0 °F /  21.1 °C 58.5 °F /  14.7 °C 29.69in /  1005.3hPa SSE 4.0mph /  6.4km/h 5.0mph /  8km/h 67% 0.00in /  0mm 418.0 W/m2
01:31 70.3 °F /  21.3 °C 58.5 °F /  14.7 °C 29.68in /  1005hPa SE 4.0mph /  6.4km/h 7.0mph /  11.3km/h 66% 0.00in /  0mm 443.0 W/m2
01:37 70.9 °F /  21.6 °C 58.5 °F /  14.7 °C 29.68in /  1005hPa SE 0.9mph /  1.4km/h 6.0mph /  9.7km/h 65% 0.00in /  0mm 410.0 W/m2
01:43 71.1 °F /  21.7 °C 58.6 °F /  14.8 °C 29.68in /  1005hPa SW 2.0mph /  3.2km/h 7.0mph /  11.3km/h 65% 0.00in /  0mm 515.0 W/m2
01:55 71.6 °F /  22 °C 58.3 °F /  14.6 °C 29.68in /  1005hPa SE 0.9mph /  1.4km/h 7.0mph /  11.3km/h 63% 0.00in /  0mm 302.0 W/m2
02:01 72.0 °F /  22.2 °C 58.6 °F /  14.8 °C 29.69in /  1005.3hPa Calm   7.0mph /  11.3km/h 63% 0.00in /  0mm 550.0 W/m2
02:07 72.5 °F /  22.5 °C 58.8 °F /  14.9 °C 29.69in /  1005.3hPa SSE 2.0mph /  3.2km/h 3.0mph /  4.8km/h 62% 0.00in /  0mm 468.0 W/m2
02:13 72.7 °F /  22.6 °C 57.9 °F /  14.4 °C 29.69in /  1005.3hPa SSE 2.9mph /  4.7km/h 8.0mph /  12.9km/h 60% 0.00in /  0mm 591.0 W/m2
02:19 72.7 °F /  22.6 °C 58.5 °F /  14.7 °C 29.69in /  1005.3hPa SE 4.9mph /  7.9km/h 6.0mph /  9.7km/h 61% 0.00in /  0mm 274.0 W/m2
02:21 72.7 °F /  22.6 °C 57.9 °F /  14.4 °C 29.69in /  1005.3hPa SSE 2.9mph /  4.7km/h 5.0mph /  8km/h 60% 0.00in /  0mm 285.0 W/m2
02:28 72.9 °F /  22.7 °C 58.6 °F /  14.8 °C 29.69in /  1005.3hPa SSE 4.0mph /  6.4km/h 5.0mph /  8km/h 61% 0.00in /  0mm 619.0 W/m2
02:34 73.2 °F /  22.9 °C 58.5 °F /  14.7 °C 29.69in /  1005.3hPa SSE 2.0mph /  3.2km/h 5.0mph /  8km/h 60% 0.00in /  0mm 663.0 W/m2
02:41 73.9 °F /  23.3 °C 58.6 °F /  14.8 °C 29.69in /  1005.3hPa South 2.9mph /  4.7km/h 6.0mph /  9.7km/h 59% 0.00in /  0mm 424.0 W/m2
02:47 73.9 °F /  23.3 °C 58.3 °F /  14.6 °C 29.69in /  1005.3hPa East 2.9mph /  4.7km/h 7.0mph /  11.3km/h 58% 0.00in /  0mm 742.0 W/m2
02:53 74.1 °F /  23.4 °C 57.9 °F /  14.4 °C 29.69in /  1005.3hPa SSE 6.9mph /  11.1km/h 11.0mph /  17.7km/h 57% 0.00in /  0mm 715.0 W/m2
02:59 74.7 °F /  23.7 °C 58.5 °F /  14.7 °C 29.69in /  1005.3hPa ESE 2.0mph /  3.2km/h 8.0mph /  12.9km/h 57% 0.00in /  0mm 318.0 W/m2
03:05 74.7 °F /  23.7 °C 58.5 °F /  14.7 °C 29.69in /  1005.3hPa South 4.0mph /  6.4km/h 10.0mph /  16.1km/h 57% 0.00in /  0mm 297.0 W/m2
03:11 74.7 °F /  23.7 °C 57.9 °F /  14.4 °C 29.69in /  1005.3hPa SSE 2.9mph /  4.7km/h 5.0mph /  8km/h 56% 0.00in /  0mm 292.0 W/m2
03:17 74.5 °F /  23.6 °C 57.2 °F /  14 °C 29.69in /  1005.3hPa East 4.9mph /  7.9km/h 10.0mph /  16.1km/h 55% 0.00in /  0mm 281.0 W/m2
03:23 74.7 °F /  23.7 °C 57.4 °F /  14.1 °C 29.69in /  1005.3hPa ESE 2.0mph /  3.2km/h 5.0mph /  8km/h 55% 0.00in /  0mm 283.0 W/m2
03:29 74.7 °F /  23.7 °C 57.9 °F /  14.4 °C 29.69in /  1005.3hPa SE 4.0mph /  6.4km/h 13.0mph /  20.9km/h 56% 0.00in /  0mm 334.0 W/m2
03:35 74.5 °F /  23.6 °C 57.7 °F /  14.3 °C 29.69in /  1005.3hPa ESE 2.9mph /  4.7km/h 7.0mph /  11.3km/h 56% 0.00in /  0mm 348.0 W/m2
03:41 74.7 °F /  23.7 °C 57.4 °F /  14.1 °C 29.69in /  1005.3hPa ESE 4.0mph /  6.4km/h 7.0mph /  11.3km/h 55% 0.00in /  0mm 993.0 W/m2
03:47 75.4 °F /  24.1 °C 58.1 °F /  14.5 °C 29.69in /  1005.3hPa SE 4.0mph /  6.4km/h 8.0mph /  12.9km/h 55% 0.00in /  0mm 396.0 W/m2
03:53 75.6 °F /  24.2 °C 57.7 °F /  14.3 °C 29.69in /  1005.3hPa SSE 2.9mph /  4.7km/h 5.0mph /  8km/h 54% 0.00in /  0mm 480.0 W/m2
03:59 76.1 °F /  24.5 °C 57.7 °F /  14.3 °C 29.69in /  1005.3hPa SE 2.0mph /  3.2km/h 9.0mph /  14.5km/h 53% 0.00in /  0mm 584.0 W/m2
04:05 76.8 °F /  24.9 °C 57.9 °F /  14.4 °C 29.69in /  1005.3hPa ESE 4.0mph /  6.4km/h 9.0mph /  14.5km/h 52% 0.00in /  0mm 443.0 W/m2
04:11 77.7 °F /  25.4 °C 57.6 °F /  14.2 °C 29.69in /  1005.3hPa East 2.0mph /  3.2km/h 9.0mph /  14.5km/h 50% 0.00in /  0mm 1079.0 W/m2
04:17 78.1 °F /  25.6 °C 57.9 °F /  14.4 °C 29.68in /  1005hPa SW 0.9mph /  1.4km/h 4.0mph /  6.4km/h 50% 0.00in /  0mm 334.0 W/m2
04:23 77.9 °F /  25.5 °C 56.7 °F /  13.7 °C 29.68in /  1005hPa SSE 6.0mph /  9.7km/h 10.0mph /  16.1km/h 48% 0.00in /  0mm 466.0 W/m2
04:29 78.1 °F /  25.6 °C 56.8 °F /  13.8 °C 29.68in /  1005hPa SE 2.0mph /  3.2km/h 8.0mph /  12.9km/h 48% 0.00in /  0mm 406.0 W/m2
04:35 77.7 °F /  25.4 °C 56.5 °F /  13.6 °C 29.68in /  1005hPa SSW 4.0mph /  6.4km/h 5.0mph /  8km/h 48% 0.00in /  0mm 329.0 W/m2
04:41 77.4 °F /  25.2 °C 57.2 °F /  14 °C 29.68in /  1005hPa East 6.0mph /  9.7km/h 10.0mph /  16.1km/h 50% 0.00in /  0mm 1280.0 W/m2
04:47 78.1 °F /  25.6 °C 57.4 °F /  14.1 °C 29.67in /  1004.6hPa ESE 2.9mph /  4.7km/h 4.0mph /  6.4km/h 49% 0.00in /  0mm 1311.0 W/m2
04:53 79.0 °F /  26.1 °C 57.6 °F /  14.2 °C 29.67in /  1004.6hPa South 2.0mph /  3.2km/h 10.0mph /  16.1km/h 48% 0.00in /  0mm 1164.0 W/m2
05:00 79.3 °F /  26.3 °C 57.9 °F /  14.4 °C 29.67in /  1004.6hPa SSE 8.1mph /  13km/h 10.0mph /  16.1km/h 48% 0.00in /  0mm 1269.0 W/m2
05:06 79.9 °F /  26.6 °C 57.2 °F /  14 °C 29.67in /  1004.6hPa SSE 4.0mph /  6.4km/h 8.0mph /  12.9km/h 46% 0.00in /  0mm 1187.0 W/m2
05:12 79.7 °F /  26.5 °C 57.7 °F /  14.3 °C 29.67in /  1004.6hPa SSE 0.9mph /  1.4km/h 5.0mph /  8km/h 47% 0.00in /  0mm 338.0 W/m2
05:18 79.2 °F /  26.2 °C 57.2 °F /  14 °C 29.66in /  1004.3hPa SSW 2.0mph /  3.2km/h 9.0mph /  14.5km/h 47% 0.00in /  0mm 373.0 W/m2
05:24 79.5 °F /  26.4 °C 56.8 °F /  13.8 °C 29.66in /  1004.3hPa SE 4.0mph /  6.4km/h 12.0mph /  19.3km/h 46% 0.00in /  0mm 1113.0 W/m2
05:36 81.0 °F /  27.2 °C 57.6 °F /  14.2 °C 29.65in /  1003.9hPa ESE 0.9mph /  1.4km/h 6.0mph /  9.7km/h 45% 0.00in /  0mm 1216.0 W/m2
05:42 81.5 °F /  27.5 °C 56.8 °F /  13.8 °C 29.65in /  1003.9hPa West 0.9mph /  1.4km/h 5.0mph /  8km/h 43% 0.00in /  0mm 1109.0 W/m2
05:49 80.6 °F /  27 °C 57.9 °F /  14.4 °C 29.65in /  1003.9hPa Calm   5.0mph /  8km/h 46% 0.00in /  0mm 353.0 W/m2
05:55 81.1 °F /  27.3 °C 57.7 °F /  14.3 °C 29.64in /  1003.6hPa WSW 4.0mph /  6.4km/h 7.0mph /  11.3km/h 45% 0.00in /  0mm 1201.0 W/m2
06:01 81.3 °F /  27.4 °C 57.4 °F /  14.1 °C 29.64in /  1003.6hPa SW 8.9mph /  14.3km/h 12.0mph /  19.3km/h 44% 0.00in /  0mm 1195.0 W/m2
06:07 81.9 °F /  27.7 °C 57.7 °F /  14.3 °C 29.64in /  1003.6hPa Calm   8.0mph /  12.9km/h 44% 0.00in /  0mm 1157.0 W/m2
06:13 82.0 °F /  27.8 °C 56.7 °F /  13.7 °C 29.63in /  1003.3hPa SSE 0.9mph /  1.4km/h 8.0mph /  12.9km/h 42% 0.00in /  0mm 1113.0 W/m2
06:19 82.2 °F /  27.9 °C 56.8 °F /  13.8 °C 29.63in /  1003.3hPa SSE 4.0mph /  6.4km/h 7.0mph /  11.3km/h 42% 0.00in /  0mm 1171.0 W/m2
06:25 83.1 °F /  28.4 °C 57.0 °F /  13.9 °C 29.63in /  1003.3hPa SW 2.9mph /  4.7km/h 6.0mph /  9.7km/h 41% 0.00in /  0mm 1134.0 W/m2
06:32 83.7 °F /  28.7 °C 56.8 °F /  13.8 °C 29.62in /  1002.9hPa Calm   5.0mph /  8km/h 40% 0.00in /  0mm 1162.0 W/m2
06:38 84.4 °F /  29.1 °C 57.4 °F /  14.1 °C 29.62in /  1002.9hPa East 2.9mph /  4.7km/h 9.0mph /  14.5km/h 40% 0.00in /  0mm 1146.0 W/m2
06:44 83.7 °F /  28.7 °C 56.1 °F /  13.4 °C 29.62in /  1002.9hPa South 0.9mph /  1.4km/h 7.0mph /  11.3km/h 39% 0.00in /  0mm 1216.0 W/m2
06:50 83.7 °F /  28.7 °C 56.1 °F /  13.4 °C 29.62in /  1002.9hPa SSW 2.0mph /  3.2km/h 6.0mph /  9.7km/h 39% 0.00in /  0mm 1099.0 W/m2
06:56 83.7 °F /  28.7 °C 56.1 °F /  13.4 °C 29.61in /  1002.6hPa SW 0.9mph /  1.4km/h 7.0mph /  11.3km/h 39% 0.00in /  0mm 1109.0 W/m2
07:02 83.5 °F /  28.6 °C 55.9 °F /  13.3 °C 29.61in /  1002.6hPa SE 8.1mph /  13km/h 12.0mph /  19.3km/h 39% 0.00in /  0mm 265.0 W/m2
07:09 83.5 °F /  28.6 °C 55.9 °F /  13.3 °C 29.61in /  1002.6hPa SE 2.9mph /  4.7km/h 7.0mph /  11.3km/h 39% 0.00in /  0mm 1016.0 W/m2
07:21 84.4 °F /  29.1 °C 55.2 °F /  12.9 °C 29.60in /  1002.3hPa SE 4.9mph /  7.9km/h 7.0mph /  11.3km/h 37% 0.00in /  0mm 294.0 W/m2
07:27 84.2 °F /  29 °C 55.0 °F /  12.8 °C 29.59in /  1001.9hPa SSE 4.9mph /  7.9km/h 5.0mph /  8km/h 37% 0.00in /  0mm 548.0 W/m2
07:33 84.0 °F /  28.9 °C 55.8 °F /  13.2 °C 29.59in /  1001.9hPa SSE 4.0mph /  6.4km/h 7.0mph /  11.3km/h 38% 0.00in /  0mm 884.0 W/m2
07:39 84.4 °F /  29.1 °C 54.5 °F /  12.5 °C 29.59in /  1001.9hPa SSE 0.9mph /  1.4km/h 7.0mph /  11.3km/h 36% 0.00in /  0mm 925.0 W/m2
07:45 84.6 °F /  29.2 °C 55.4 °F /  13 °C 29.59in /  1001.9hPa South 2.0mph /  3.2km/h 5.0mph /  8km/h 37% 0.00in /  0mm 265.0 W/m2
07:51 84.4 °F /  29.1 °C 55.2 °F /  12.9 °C 29.59in /  1001.9hPa ESE 2.0mph /  3.2km/h 5.0mph /  8km/h 37% 0.00in /  0mm 900.0 W/m2
07:57 84.7 °F /  29.3 °C 54.1 °F /  12.3 °C 29.59in /  1001.9hPa SW 0.9mph /  1.4km/h 6.0mph /  9.7km/h 35% 0.00in /  0mm 874.0 W/m2
08:03 85.3 °F /  29.6 °C 52.2 °F /  11.2 °C 29.59in /  1001.9hPa ESE 2.9mph /  4.7km/h 7.0mph /  11.3km/h 32% 0.00in /  0mm 835.0 W/m2
08:09 85.5 °F /  29.7 °C 52.2 °F /  11.2 °C 29.58in /  1001.6hPa Calm   3.0mph /  4.8km/h 32% 0.00in /  0mm 399.0 W/m2
08:15 85.8 °F /  29.9 °C 52.5 °F /  11.4 °C 29.58in /  1001.6hPa SSE 2.9mph /  4.7km/h 6.0mph /  9.7km/h 32% 0.00in /  0mm 916.0 W/m2
08:21 86.4 °F /  30.2 °C 53.8 °F /  12.1 °C 29.58in /  1001.6hPa South 2.9mph /  4.7km/h 8.0mph /  12.9km/h 33% 0.00in /  0mm 884.0 W/m2
08:34 87.1 °F /  30.6 °C 52.7 °F /  11.5 °C 29.57in /  1001.2hPa SE 6.9mph /  11.1km/h 10.0mph /  16.1km/h 31% 0.00in /  0mm 865.0 W/m2
08:40 87.3 °F /  30.7 °C 52.9 °F /  11.6 °C 29.56in /  1000.9hPa Calm   4.0mph /  6.4km/h 31% 0.00in /  0mm 851.0 W/m2
08:46 87.4 °F /  30.8 °C 53.1 °F /  11.7 °C 29.56in /  1000.9hPa ESE 4.9mph /  7.9km/h 9.0mph /  14.5km/h 31% 0.00in /  0mm 823.0 W/m2
08:52 87.6 °F /  30.9 °C 53.2 °F /  11.8 °C 29.55in /  1000.6hPa SSW 6.9mph /  11.1km/h 7.0mph /  11.3km/h 31% 0.00in /  0mm 780.0 W/m2
08:58 87.6 °F /  30.9 °C 53.2 °F /  11.8 °C 29.55in /  1000.6hPa South 8.1mph /  13km/h 10.0mph /  16.1km/h 31% 0.00in /  0mm 733.0 W/m2
09:04 87.1 °F /  30.6 °C 53.6 °F /  12 °C 29.54in /  1000.2hPa SSE 4.0mph /  6.4km/h 10.0mph /  16.1km/h 32% 0.00in /  0mm 341.0 W/m2
09:10 86.7 °F /  30.4 °C 53.4 °F /  11.9 °C 29.54in /  1000.2hPa SE 2.9mph /  4.7km/h 9.0mph /  14.5km/h 32% 0.00in /  0mm 206.0 W/m2
09:16 86.0 °F /  30 °C 53.6 °F /  12 °C 29.54in /  1000.2hPa Calm   7.0mph /  11.3km/h 33% 0.00in /  0mm 548.0 W/m2
09:22 85.8 °F /  29.9 °C 51.6 °F /  10.9 °C 29.54in /  1000.2hPa SE 2.0mph /  3.2km/h 5.0mph /  8km/h 31% 0.00in /  0mm 457.0 W/m2
09:29 85.8 °F /  29.9 °C 52.5 °F /  11.4 °C 29.54in /  1000.2hPa ESE 4.0mph /  6.4km/h 9.0mph /  14.5km/h 32% 0.00in /  0mm 429.0 W/m2
09:35 85.5 °F /  29.7 °C 53.1 °F /  11.7 °C 29.53in /  999.9hPa South 4.0mph /  6.4km/h 8.0mph /  12.9km/h 33% 0.00in /  0mm 216.0 W/m2
09:41 84.7 °F /  29.3 °C 50.7 °F /  10.4 °C 29.53in /  999.9hPa SW 4.0mph /  6.4km/h 11.0mph /  17.7km/h 31% 0.00in /  0mm 287.0 W/m2
09:47 84.4 °F /  29.1 °C 52.9 °F /  11.6 °C 29.53in /  999.9hPa Calm   5.0mph /  8km/h 34% 0.00in /  0mm 489.0 W/m2
09:53 84.7 °F /  29.3 °C 53.2 °F /  11.8 °C 29.52in /  999.5hPa South 6.9mph /  11.1km/h 11.0mph /  17.7km/h 34% 0.00in /  0mm 438.0 W/m2
09:59 85.1 °F /  29.5 °C 52.0 °F /  11.1 °C 29.52in /  999.5hPa SE 4.9mph /  7.9km/h 9.0mph /  14.5km/h 32% 0.00in /  0mm 394.0 W/m2
10:05 85.3 °F /  29.6 °C 53.8 °F /  12.1 °C 29.52in /  999.5hPa Calm   6.0mph /  9.7km/h 34% 0.00in /  0mm 515.0 W/m2
10:11 85.6 °F /  29.8 °C 53.2 °F /  11.8 °C 29.52in /  999.5hPa SE 2.9mph /  4.7km/h 8.0mph /  12.9km/h 33% 0.00in /  0mm 547.0 W/m2
10:17 85.8 °F /  29.9 °C 53.4 °F /  11.9 °C 29.51in /  999.2hPa SSE 2.0mph /  3.2km/h 9.0mph /  14.5km/h 33% 0.00in /  0mm 466.0 W/m2
10:24 86.4 °F /  30.2 °C 53.8 °F /  12.1 °C 29.52in /  999.5hPa South 6.0mph /  9.7km/h 9.0mph /  14.5km/h 33% 0.00in /  0mm 366.0 W/m2
10:30 85.6 °F /  29.8 °C 53.2 °F /  11.8 °C 29.51in /  999.2hPa SE 0.9mph /  1.4km/h 7.0mph /  11.3km/h 33% 0.00in /  0mm 93.0 W/m2
10:36 84.9 °F /  29.4 °C 52.5 °F /  11.4 °C 29.52in /  999.5hPa SSE 4.9mph /  7.9km/h 9.0mph /  14.5km/h 33% 0.00in /  0mm 221.0 W/m2
10:42 84.4 °F /  29.1 °C 52.9 °F /  11.6 °C 29.52in /  999.5hPa SSE 0.9mph /  1.4km/h 6.0mph /  9.7km/h 34% 0.00in /  0mm 79.0 W/m2
10:48 83.7 °F /  28.7 °C 53.1 °F /  11.7 °C 29.52in /  999.5hPa SSE 2.9mph /  4.7km/h 5.0mph /  8km/h 35% 0.00in /  0mm 121.0 W/m2
10:54 83.3 °F /  28.5 °C 52.9 °F /  11.6 °C 29.52in /  999.5hPa SE 6.0mph /  9.7km/h 8.0mph /  12.9km/h 35% 0.00in /  0mm 67.0 W/m2
11:00 82.9 °F /  28.3 °C 52.5 °F /  11.4 °C 29.52in /  999.5hPa SE 8.9mph /  14.3km/h 13.0mph /  20.9km/h 35% 0.00in /  0mm 76.0 W/m2
11:06 82.8 °F /  28.2 °C 52.3 °F /  11.3 °C 29.52in /  999.5hPa SSE 4.0mph /  6.4km/h 7.0mph /  11.3km/h 35% 0.00in /  0mm 67.0 W/m2
11:13 82.8 °F /  28.2 °C 52.3 °F /  11.3 °C 29.52in /  999.5hPa SSE 6.0mph /  9.7km/h 6.0mph /  9.7km/h 35% 0.00in /  0mm 237.0 W/m2
11:19 83.1 °F /  28.4 °C 51.8 °F /  11 °C 29.52in /  999.5hPa ESE 6.9mph /  11.1km/h 9.0mph /  14.5km/h 34% 0.00in /  0mm 283.0 W/m2
11:25 83.7 °F /  28.7 °C 52.3 °F /  11.3 °C 29.52in /  999.5hPa SSE 2.9mph /  4.7km/h 8.0mph /  12.9km/h 34% 0.00in /  0mm 257.0 W/m2
11:31 84.0 °F /  28.9 °C 52.7 °F /  11.5 °C 29.52in /  999.5hPa SE 4.0mph /  6.4km/h 9.0mph /  14.5km/h 34% 0.00in /  0mm 202.0 W/m2
11:43 82.8 °F /  28.2 °C 52.3 °F /  11.3 °C 29.52in /  999.5hPa South 4.0mph /  6.4km/h 13.0mph /  20.9km/h 35% 0.00in /  0mm 56.0 W/m2
11:50 82.2 °F /  27.9 °C 52.5 °F /  11.4 °C 29.53in /  999.9hPa South 10.1mph /  16.3km/h 10.1mph /  16.3km/h 36% 0.00in /  0mm 35.0 W/m2
11:55 81.7 °F /  27.6 °C 52.2 °F /  11.2 °C 29.53in /  999.9hPa SW 4.0mph /  6.4km/h 8.0mph /  12.9km/h 36% 0.00in /  0mm 30.0 W/m2
12:02 81.3 °F /  27.4 °C 52.5 °F /  11.4 °C 29.53in /  999.9hPa SE 2.0mph /  3.2km/h 8.0mph /  12.9km/h 37% 0.00in /  0mm 26.0 W/m2
12:08 81.0 °F /  27.2 °C 52.2 °F /  11.2 °C 29.53in /  999.9hPa SSE 6.0mph /  9.7km/h 12.0mph /  19.3km/h 37% 0.00in /  0mm 25.0 W/m2
12:14 80.4 °F /  26.9 °C 52.5 °F /  11.4 °C 29.54in /  1000.2hPa SSE 0.9mph /  1.4km/h 8.0mph /  12.9km/h 38% 0.00in /  0mm 21.0 W/m2
12:20 80.2 °F /  26.8 °C 52.3 °F /  11.3 °C 29.54in /  1000.2hPa WSW 2.0mph /  3.2km/h 9.0mph /  14.5km/h 38% 0.00in /  0mm 19.0 W/m2
12:26 80.1 °F /  26.7 °C 50.7 °F /  10.4 °C 29.54in /  1000.2hPa ESE 2.0mph /  3.2km/h 8.0mph /  12.9km/h 36% 0.00in /  0mm 19.0 W/m2
12:32 80.1 °F /  26.7 °C 50.7 °F /  10.4 °C 29.54in /  1000.2hPa SSE 4.9mph /  7.9km/h 12.0mph /  19.3km/h 36% 0.00in /  0mm 12.0 W/m2
12:38 79.9 °F /  26.6 °C 50.5 °F /  10.3 °C 29.54in /  1000.2hPa ESE 2.0mph /  3.2km/h 7.0mph /  11.3km/h 36% 0.00in /  0mm 5.0 W/m2
12:45 79.5 °F /  26.4 °C 50.2 °F /  10.1 °C 29.55in /  1000.6hPa SE 4.9mph /  7.9km/h 8.0mph /  12.9km/h 36% 0.00in /  0mm 5.0 W/m2
12:51 79.3 °F /  26.3 °C 50.0 °F /  10 °C 29.55in /  1000.6hPa SSE 2.9mph /  4.7km/h 8.0mph /  12.9km/h 36% 0.00in /  0mm 0.0 W/m2
12:57 79.3 °F /  26.3 °C 50.0 °F /  10 °C 29.56in /  1000.9hPa South 4.9mph /  7.9km/h 6.0mph /  9.7km/h 36% 0.00in /  0mm 0.0 W/m2
13:03 79.2 °F /  26.2 °C 50.7 °F /  10.4 °C 29.56in /  1000.9hPa Calm   5.0mph /  8km/h 37% 0.00in /  0mm 0.0 W/m2
13:09 79.0 °F /  26.1 °C 54.5 °F /  12.5 °C 29.56in /  1000.9hPa West 2.0mph /  3.2km/h 5.0mph /  8km/h 43% 0.00in /  0mm 0.0 W/m2
13:15 77.9 °F /  25.5 °C 56.1 °F /  13.4 °C 29.56in /  1000.9hPa WSW 4.0mph /  6.4km/h 8.0mph /  12.9km/h 47% 0.00in /  0mm 0.0 W/m2
13:21 76.8 °F /  24.9 °C 56.3 °F /  13.5 °C 29.57in /  1001.2hPa West 0.9mph /  1.4km/h 7.0mph /  11.3km/h 49% 0.00in /  0mm 0.0 W/m2
13:27 76.3 °F /  24.6 °C 56.3 °F /  13.5 °C 29.57in /  1001.2hPa West 2.9mph /  4.7km/h 9.0mph /  14.5km/h 50% 0.00in /  0mm 0.0 W/m2
13:34 75.6 °F /  24.2 °C 56.1 °F /  13.4 °C 29.57in /  1001.2hPa SW 4.9mph /  7.9km/h 8.0mph /  12.9km/h 51% 0.00in /  0mm 0.0 W/m2
13:40 75.4 °F /  24.1 °C 56.5 °F /  13.6 °C 29.58in /  1001.6hPa SW 4.9mph /  7.9km/h 7.0mph /  11.3km/h 52% 0.00in /  0mm 0.0 W/m2
13:46 75.0 °F /  23.9 °C 56.7 °F /  13.7 °C 29.58in /  1001.6hPa Calm   4.0mph /  6.4km/h 53% 0.00in /  0mm 0.0 W/m2
13:52 74.7 °F /  23.7 °C 56.5 °F /  13.6 °C 29.58in /  1001.6hPa SSW 2.9mph /  4.7km/h 5.0mph /  8km/h 53% 0.00in /  0mm 0.0 W/m2
13:58 74.5 °F /  23.6 °C 56.3 °F /  13.5 °C 29.58in /  1001.6hPa SW 2.0mph /  3.2km/h 7.0mph /  11.3km/h 53% 0.00in /  0mm 0.0 W/m2
14:04 74.3 °F /  23.5 °C 56.7 °F /  13.7 °C 29.58in /  1001.6hPa SW 0.9mph /  1.4km/h 6.0mph /  9.7km/h 54% 0.00in /  0mm 0.0 W/m2
14:10 74.1 °F /  23.4 °C 56.5 °F /  13.6 °C 29.58in /  1001.6hPa WSW 2.9mph /  4.7km/h 5.0mph /  8km/h 54% 0.00in /  0mm 0.0 W/m2
14:17 73.9 °F /  23.3 °C 56.3 °F /  13.5 °C 29.58in /  1001.6hPa WNW 2.9mph /  4.7km/h 8.0mph /  12.9km/h 54% 0.00in /  0mm 0.0 W/m2
14:23 73.8 °F /  23.2 °C 56.1 °F /  13.4 °C 29.58in /  1001.6hPa SSW 2.0mph /  3.2km/h 4.0mph /  6.4km/h 54% 0.00in /  0mm 0.0 W/m2
14:29 73.6 °F /  23.1 °C 56.5 °F /  13.6 °C 29.59in /  1001.9hPa SSW 0.9mph /  1.4km/h 7.0mph /  11.3km/h 55% 0.00in /  0mm 0.0 W/m2
14:35 73.2 °F /  22.9 °C 56.1 °F /  13.4 °C 29.59in /  1001.9hPa SSW 2.0mph /  3.2km/h 6.0mph /  9.7km/h 55% 0.00in /  0mm 0.0 W/m2
14:41 73.0 °F /  22.8 °C 55.9 °F /  13.3 °C 29.59in /  1001.9hPa WSW 2.9mph /  4.7km/h 7.0mph /  11.3km/h 55% 0.00in /  0mm 0.0 W/m2
14:47 72.9 °F /  22.7 °C 55.8 °F /  13.2 °C 29.59in /  1001.9hPa SSW 2.0mph /  3.2km/h 5.0mph /  8km/h 55% 0.00in /  0mm 0.0 W/m2
14:53 72.7 °F /  22.6 °C 56.1 °F /  13.4 °C 29.59in /  1001.9hPa SW 2.9mph /  4.7km/h 7.0mph /  11.3km/h 56% 0.00in /  0mm 0.0 W/m2
15:00 72.3 °F /  22.4 °C 55.8 °F /  13.2 °C 29.59in /  1001.9hPa SSW 2.9mph /  4.7km/h 5.0mph /  8km/h 56% 0.00in /  0mm 0.0 W/m2
15:06 72.1 °F /  22.3 °C 55.6 °F /  13.1 °C 29.60in /  1002.3hPa SW 2.0mph /  3.2km/h 6.0mph /  9.7km/h 56% 0.00in /  0mm 0.0 W/m2
15:12 72.0 °F /  22.2 °C 55.9 °F /  13.3 °C 29.60in /  1002.3hPa WSW 2.0mph /  3.2km/h 7.0mph /  11.3km/h 57% 0.00in /  0mm 0.0 W/m2
15:18 72.0 °F /  22.2 °C 55.9 °F /  13.3 °C 29.60in /  1002.3hPa Calm   3.0mph /  4.8km/h 57% 0.00in /  0mm 0.0 W/m2
15:24 71.8 °F /  22.1 °C 55.8 °F /  13.2 °C 29.60in /  1002.3hPa SW 4.0mph /  6.4km/h 7.0mph /  11.3km/h 57% 0.00in /  0mm 0.0 W/m2
15:30 71.6 °F /  22 °C 56.1 °F /  13.4 °C 29.60in /  1002.3hPa SSW 2.9mph /  4.7km/h 4.0mph /  6.4km/h 58% 0.00in /  0mm 0.0 W/m2
15:37 71.4 °F /  21.9 °C 55.9 °F /  13.3 °C 29.61in /  1002.6hPa WSW 2.9mph /  4.7km/h 3.0mph /  4.8km/h 58% 0.00in /  0mm 0.0 W/m2
15:43 71.4 °F /  21.9 °C 55.9 °F /  13.3 °C 29.61in /  1002.6hPa South 0.9mph /  1.4km/h 7.0mph /  11.3km/h 58% 0.00in /  0mm 0.0 W/m2
15:49 71.2 °F /  21.8 °C 55.8 °F /  13.2 °C 29.61in /  1002.6hPa Calm   5.0mph /  8km/h 58% 0.00in /  0mm 0.0 W/m2
15:55 71.1 °F /  21.7 °C 55.9 °F /  13.3 °C 29.61in /  1002.6hPa Calm   1.0mph /  1.6km/h 59% 0.00in /  0mm 0.0 W/m2
16:01 71.1 °F /  21.7 °C 55.9 °F /  13.3 °C 29.62in /  1002.9hPa Calm   1.0mph /  1.6km/h 59% 0.00in /  0mm 0.0 W/m2
16:07 70.9 °F /  21.6 °C 55.8 °F /  13.2 °C 29.62in /  1002.9hPa Calm     59% 0.00in /  0mm 0.0 W/m2
16:13 70.9 °F /  21.6 °C 55.8 °F /  13.2 °C 29.62in /  1002.9hPa Calm   1.0mph /  1.6km/h 59% 0.00in /  0mm 0.0 W/m2
16:19 70.7 °F /  21.5 °C 56.1 °F /  13.4 °C 29.63in /  1003.3hPa Calm   2.0mph /  3.2km/h 60% 0.00in /  0mm 0.0 W/m2
16:25 70.5 °F /  21.4 °C 55.9 °F /  13.3 °C 29.63in /  1003.3hPa SSW 0.9mph /  1.4km/h 2.0mph /  3.2km/h 60% 0.00in /  0mm 0.0 W/m2
16:32 70.5 °F /  21.4 °C 55.6 °F /  13.1 °C 29.63in /  1003.3hPa South 0.9mph /  1.4km/h 4.0mph /  6.4km/h 59% 0.00in /  0mm 0.0 W/m2
16:38 70.7 °F /  21.5 °C 55.6 °F /  13.1 °C 29.63in /  1003.3hPa Calm   1.0mph /  1.6km/h 59% 0.00in /  0mm 0.0 W/m2
16:44 70.9 °F /  21.6 °C 55.8 °F /  13.2 °C 29.62in /  1002.9hPa Calm   4.0mph /  6.4km/h 59% 0.00in /  0mm 0.0 W/m2
16:50 70.9 °F /  21.6 °C 55.8 °F /  13.2 °C 29.63in /  1003.3hPa ENE 0.9mph /  1.4km/h 4.0mph /  6.4km/h 59% 0.00in /  0mm 0.0 W/m2
16:56 70.9 °F /  21.6 °C 55.8 °F /  13.2 °C 29.63in /  1003.3hPa SSW 0.9mph /  1.4km/h 1.0mph /  1.6km/h 59% 0.00in /  0mm 0.0 W/m2
17:02 70.9 °F /  21.6 °C 55.8 °F /  13.2 °C 29.62in /  1002.9hPa Calm   1.0mph /  1.6km/h 59% 0.00in /  0mm 0.0 W/m2
17:08 70.9 °F /  21.6 °C 55.8 °F /  13.2 °C 29.62in /  1002.9hPa SSW 2.0mph /  3.2km/h 2.0mph /  3.2km/h 59% 0.00in /  0mm 0.0 W/m2
17:15 70.7 °F /  21.5 °C 55.6 °F /  13.1 °C 29.62in /  1002.9hPa Calm   1.0mph /  1.6km/h 59% 0.00in /  0mm 0.0 W/m2
17:21 70.7 °F /  21.5 °C 55.2 °F /  12.9 °C 29.62in /  1002.9hPa South 2.0mph /  3.2km/h 4.0mph /  6.4km/h 58% 0.00in /  0mm 0.0 W/m2
17:27 70.7 °F /  21.5 °C 55.6 °F /  13.1 °C 29.62in /  1002.9hPa SSW 2.0mph /  3.2km/h 2.0mph /  3.2km/h 59% 0.00in /  0mm 0.0 W/m2
17:33 70.5 °F /  21.4 °C 55.6 °F /  13.1 °C 29.62in /  1002.9hPa Calm   3.0mph /  4.8km/h 59% 0.00in /  0mm 0.0 W/m2
17:39 70.5 °F /  21.4 °C 55.6 °F /  13.1 °C 29.62in /  1002.9hPa SSW 2.9mph /  4.7km/h 5.0mph /  8km/h 59% 0.00in /  0mm 0.0 W/m2
17:45 70.3 °F /  21.3 °C 55.4 °F /  13 °C 29.62in /  1002.9hPa Calm   1.0mph /  1.6km/h 59% 0.00in /  0mm 0.0 W/m2
18:08 70.0 °F /  21.1 °C 55.4 °F /  13 °C 29.62in /  1002.9hPa SSE 2.0mph /  3.2km/h 4.0mph /  6.4km/h 60% 0.00in /  0mm 0.0 W/m2
18:14 69.8 °F /  21 °C 55.2 °F /  12.9 °C 29.61in /  1002.6hPa Calm   2.0mph /  3.2km/h 60% 0.00in /  0mm 0.0 W/m2
18:20 69.6 °F /  20.9 °C 55.0 °F /  12.8 °C 29.61in /  1002.6hPa Calm   2.0mph /  3.2km/h 60% 0.00in /  0mm 0.0 W/m2
18:26 69.6 °F /  20.9 °C 55.0 °F /  12.8 °C 29.60in /  1002.3hPa SSE 0.9mph /  1.4km/h 2.0mph /  3.2km/h 60% 0.00in /  0mm 0.0 W/m2
18:32 69.4 °F /  20.8 °C 54.9 °F /  12.7 °C 29.60in /  1002.3hPa Calm   2.0mph /  3.2km/h 60% 0.00in /  0mm 0.0 W/m2
18:38 69.3 °F /  20.7 °C 55.2 °F /  12.9 °C 29.60in /  1002.3hPa Calm   1.0mph /  1.6km/h 61% 0.00in /  0mm 0.0 W/m2
18:44 69.1 °F /  20.6 °C 55.0 °F /  12.8 °C 29.60in /  1002.3hPa SSW 6.0mph /  9.7km/h 6.0mph /  9.7km/h 61% 0.00in /  0mm 0.0 W/m2
18:50 69.1 °F /  20.6 °C 55.0 °F /  12.8 °C 29.60in /  1002.3hPa SE 0.9mph /  1.4km/h 3.0mph /  4.8km/h 61% 0.00in /  0mm 0.0 W/m2
18:57 68.9 °F /  20.5 °C 55.4 °F /  13 °C 29.60in /  1002.3hPa Calm   1.0mph /  1.6km/h 62% 0.00in /  0mm 0.0 W/m2
19:03 68.7 °F /  20.4 °C 55.2 °F /  12.9 °C 29.59in /  1001.9hPa Calm   3.0mph /  4.8km/h 62% 0.00in /  0mm 0.0 W/m2
19:09 68.7 °F /  20.4 °C 55.2 °F /  12.9 °C 29.59in /  1001.9hPa Calm   1.0mph /  1.6km/h 62% 0.00in /  0mm 0.0 W/m2
19:15 68.5 °F /  20.3 °C 55.0 °F /  12.8 °C 29.59in /  1001.9hPa SSW 0.9mph /  1.4km/h 3.0mph /  4.8km/h 62% 0.00in /  0mm 0.0 W/m2
19:21 68.4 °F /  20.2 °C 54.9 °F /  12.7 °C 29.59in /  1001.9hPa SE 2.0mph /  3.2km/h 4.0mph /  6.4km/h 62% 0.00in /  0mm 0.0 W/m2
19:27 68.4 °F /  20.2 °C 54.9 °F /  12.7 °C 29.59in /  1001.9hPa SE 4.0mph /  6.4km/h 6.0mph /  9.7km/h 62% 0.00in /  0mm 0.0 W/m2
19:33 68.4 °F /  20.2 °C 54.9 °F /  12.7 °C 29.59in /  1001.9hPa SSE 2.9mph /  4.7km/h 5.0mph /  8km/h 62% 0.00in /  0mm 0.0 W/m2
19:40 68.4 °F /  20.2 °C 55.2 °F /  12.9 °C 29.58in /  1001.6hPa South 0.9mph /  1.4km/h 5.0mph /  8km/h 63% 0.00in /  0mm 0.0 W/m2
19:46 68.2 °F /  20.1 °C 55.0 °F /  12.8 °C 29.57in /  1001.2hPa Calm   3.0mph /  4.8km/h 63% 0.00in /  0mm 0.0 W/m2
19:52 68.0 °F /  20 °C 54.9 °F /  12.7 °C 29.57in /  1001.2hPa Calm   2.0mph /  3.2km/h 63% 0.00in /  0mm 0.0 W/m2
19:58 67.8 °F /  19.9 °C 54.7 °F /  12.6 °C 29.57in /  1001.2hPa Calm   3.0mph /  4.8km/h 63% 0.00in /  0mm 0.0 W/m2
20:04 67.8 °F /  19.9 °C 54.7 °F /  12.6 °C 29.57in /  1001.2hPa Calm   4.0mph /  6.4km/h 63% 0.00in /  0mm 0.0 W/m2
20:10 67.8 °F /  19.9 °C 54.7 °F /  12.6 °C 29.57in /  1001.2hPa SE 0.9mph /  1.4km/h 2.0mph /  3.2km/h 63% 0.00in /  0mm 0.0 W/m2
20:16 67.6 °F /  19.8 °C 54.7 °F /  12.6 °C 29.57in /  1001.2hPa SSE 2.0mph /  3.2km/h 4.0mph /  6.4km/h 63% 0.00in /  0mm 0.0 W/m2
20:22 67.6 °F /  19.8 °C 55.0 °F /  12.8 °C 29.57in /  1001.2hPa ESE 0.9mph /  1.4km/h 2.0mph /  3.2km/h 64% 0.00in /  0mm 0.0 W/m2
20:28 67.5 °F /  19.7 °C 54.9 °F /  12.7 °C 29.57in /  1001.2hPa Calm   3.0mph /  4.8km/h 64% 0.00in /  0mm 0.0 W/m2
20:35 67.5 °F /  19.7 °C 54.5 °F /  12.5 °C 29.57in /  1001.2hPa Calm   3.0mph /  4.8km/h 63% 0.00in /  0mm 0.0 W/m2
20:41 67.5 °F /  19.7 °C 54.5 °F /  12.5 °C 29.57in /  1001.2hPa South 0.9mph /  1.4km/h 1.0mph /  1.6km/h 63% 0.00in /  0mm 0.0 W/m2
20:47 67.5 °F /  19.7 °C 54.9 °F /  12.7 °C 29.57in /  1001.2hPa South 2.0mph /  3.2km/h 2.0mph /  3.2km/h 64% 0.00in /  0mm 0.0 W/m2
20:53 67.3 °F /  19.6 °C 54.7 °F /  12.6 °C 29.56in /  1000.9hPa Calm   1.0mph /  1.6km/h 64% 0.00in /  0mm 0.0 W/m2
20:59 67.3 °F /  19.6 °C 54.7 °F /  12.6 °C 29.56in /  1000.9hPa Calm   1.0mph /  1.6km/h 64% 0.00in /  0mm 0.0 W/m2
21:05 66.9 °F /  19.4 °C 54.3 °F /  12.4 °C 29.57in /  1001.2hPa Calm   1.0mph /  1.6km/h 64% 0.00in /  0mm 0.0 W/m2
21:12 66.9 °F /  19.4 °C 54.3 °F /  12.4 °C 29.57in /  1001.2hPa Calm     64% 0.00in /  0mm 0.0 W/m2
21:18 66.7 °F /  19.3 °C 55.0 °F /  12.8 °C 29.57in /  1001.2hPa Calm     66% 0.00in /  0mm 0.0 W/m2
21:24 66.6 °F /  19.2 °C 54.9 °F /  12.7 °C 29.57in /  1001.2hPa Calm   2.0mph /  3.2km/h 66% 0.00in /  0mm 0.0 W/m2
21:30 66.4 °F /  19.1 °C 54.7 °F /  12.6 °C 29.57in /  1001.2hPa Calm   1.0mph /  1.6km/h 66% 0.00in /  0mm 0.0 W/m2
21:36 66.2 °F /  19 °C 54.5 °F /  12.5 °C 29.56in /  1000.9hPa Calm     66% 0.00in /  0mm 0.0 W/m2
21:42 66.0 °F /  18.9 °C 54.3 °F /  12.4 °C 29.56in /  1000.9hPa Calm     66% 0.00in /  0mm 0.0 W/m2
21:48 65.8 °F /  18.8 °C 54.5 °F /  12.5 °C 29.56in /  1000.9hPa Calm     67% 0.00in /  0mm 0.0 W/m2
21:54 65.8 °F /  18.8 °C 54.5 °F /  12.5 °C 29.56in /  1000.9hPa Calm     67% 0.00in /  0mm 0.0 W/m2
22:00 65.7 °F /  18.7 °C 54.9 °F /  12.7 °C 29.56in /  1000.9hPa Calm     68% 0.00in /  0mm 0.0 W/m2
22:07 65.5 °F /  18.6 °C 54.7 °F /  12.6 °C 29.56in /  1000.9hPa Calm     68% 0.00in /  0mm 0.0 W/m2
22:13 65.5 °F /  18.6 °C 54.7 °F /  12.6 °C 29.56in /  1000.9hPa Calm     68% 0.00in /  0mm 0.0 W/m2
22:19 65.3 °F /  18.5 °C 54.5 °F /  12.5 °C 29.56in /  1000.9hPa Calm     68% 0.00in /  0mm 0.0 W/m2
22:25 65.1 °F /  18.4 °C 54.7 °F /  12.6 °C 29.56in /  1000.9hPa Calm     69% 0.00in /  0mm 0.0 W/m2
22:31 65.1 °F /  18.4 °C 54.7 °F /  12.6 °C 29.56in /  1000.9hPa Calm   1.0mph /  1.6km/h 69% 0.00in /  0mm 0.0 W/m2
22:37 65.1 °F /  18.4 °C 54.7 °F /  12.6 °C 29.56in /  1000.9hPa Calm     69% 0.00in /  0mm 0.0 W/m2
22:43 65.1 °F /  18.4 °C 55.0 °F /  12.8 °C 29.56in /  1000.9hPa Calm     70% 0.00in /  0mm 0.0 W/m2
22:49 65.1 °F /  18.4 °C 55.4 °F /  13 °C 29.56in /  1000.9hPa Calm     71% 0.00in /  0mm 0.0 W/m2
22:56 65.1 °F /  18.4 °C 55.0 °F /  12.8 °C 29.56in /  1000.9hPa Calm     70% 0.00in /  0mm 0.0 W/m2
23:02 65.1 °F /  18.4 °C 55.0 °F /  12.8 °C 29.56in /  1000.9hPa Calm     70% 0.00in /  0mm 0.0 W/m2
23:08 65.1 °F /  18.4 °C 54.7 °F /  12.6 °C 29.56in /  1000.9hPa North 2.0mph /  3.2km/h 4.0mph /  6.4km/h 69% 0.00in /  0mm 0.0 W/m2
23:14 65.5 °F /  18.6 °C 54.3 °F /  12.4 °C 29.56in /  1000.9hPa Calm   1.0mph /  1.6km/h 67% 0.00in /  0mm 0.0 W/m2
23:20 65.7 °F /  18.7 °C 54.0 °F /  12.2 °C 29.56in /  1000.9hPa Calm   1.0mph /  1.6km/h 66% 0.00in /  0mm 0.0 W/m2
23:26 65.8 °F /  18.8 °C 54.1 °F /  12.3 °C 29.56in /  1000.9hPa West 0.9mph /  1.4km/h 2.0mph /  3.2km/h 66% 0.00in /  0mm 7.0 W/m2
23:32 66.0 °F /  18.9 °C 54.0 °F /  12.2 °C 29.56in /  1000.9hPa Calm   1.0mph /  1.6km/h 65% 0.00in /  0mm 12.0 W/m2
23:38 66.2 °F /  19 °C 53.6 °F /  12 °C 29.56in /  1000.9hPa Calm   4.0mph /  6.4km/h 64% 0.00in /  0mm 19.0 W/m2
23:44 66.4 °F /  19.1 °C 54.3 °F /  12.4 °C 29.57in /  1001.2hPa WSW 0.9mph /  1.4km/h 1.0mph /  1.6km/h 65% 0.00in /  0mm 26.0 W/m2
23:50 66.6 °F /  19.2 °C 54.5 °F /  12.5 °C 29.57in /  1001.2hPa WSW 2.0mph /  3.2km/h 3.0mph /  4.8km/h 65% 0.00in /  0mm 30.0 W/m2
23:56 66.6 °F /  19.2 °C 54.5 °F /  12.5 °C 29.57in /  1001.2hPa Calm   1.0mph /  1.6km/h 65% 0.00in /  0mm 42.0 W/m2
Olympia, Windhoek, Namibia
Compliments of Weather Underground - 3 mb